sensor_id;sensor_type;location;lat;lon;timestamp;temperature;humidity
19829;DHT22;10075;50.924;4.396;2024-01-15T00:02:14;3.40;99.90
19829;DHT22;10075;50.924;4.396;2024-01-15T00:04:41;3.50;99.90
19829;DHT22;10075;50.924;4.396;2024-01-15T00:07:08;3.60;99.90
19829;DHT22;10075;50.924;4.396;2024-01-15T00:09:36;3.50;99.90
19829;DHT22;10075;50.924;4.396;2024-01-15T00:12:03;3.50;99.90
19829;DHT22;10075;50.924;4.396;2024-01-15T00:14:30;3.50;99.90
19829;DHT22;10075;50.924;4.396;2024-01-15T00:16:57;3.40;99.90
19829;DHT22;10075;50.924;4.396;2024-01-15T00:19:25;3.40;99.90
19829;DHT22;10075;50.924;4.396;2024-01-15T00:21:53;3.40;99.90
19829;DHT22;10075;50.924;4.396;2024-01-15T00:24:19;3.30;99.90
19829;DHT22;10075;50.924;4.396;2024-01-15T00:26:46;3.30;99.90
19829;DHT22;10075;50.924;4.396;2024-01-15T00:29:13;3.50;99.90
19829;DHT22;10075;50.924;4.396;2024-01-15T00:31:40;3.50;99.90
19829;DHT22;10075;50.924;4.396;2024-01-15T00:34:07;3.60;99.90
19829;DHT22;10075;50.924;4.396;2024-01-15T00:36:35;3.70;99.90
19829;DHT22;10075;50.924;4.396;2024-01-15T00:39:03;3.80;99.90
19829;DHT22;10075;50.924;4.396;2024-01-15T00:41:30;3.80;99.90
19829;DHT22;10075;50.924;4.396;2024-01-15T00:43:57;3.80;99.90
19829;DHT22;10075;50.924;4.396;2024-01-15T00:46:24;3.70;99.90
19829;DHT22;10075;50.924;4.396;2024-01-15T00:48:51;3.90;99.90
19829;DHT22;10075;50.924;4.396;2024-01-15T00:51:18;3.90;99.90
19829;DHT22;10075;50.924;4.396;2024-01-15T00:53:47;4.10;99.90
19829;DHT22;10075;50.924;4.396;2024-01-15T00:56:13;4.10;99.90
19829;DHT22;10075;50.924;4.396;2024-01-15T00:58:40;4.00;99.90
19829;DHT22;10075;50.924;4.396;2024-01-15T01:01:07;4.00;99.90
19829;DHT22;10075;50.924;4.396;2024-01-15T01:03:34;4.20;99.90
19829;DHT22;10075;50.924;4.396;2024-01-15T01:06:01;4.20;99.90
19829;DHT22;10075;50.924;4.396;2024-01-15T01:08:28;4.00;99.90
19829;DHT22;10075;50.924;4.396;2024-01-15T01:10:57;3.70;99.90
19829;DHT22;10075;50.924;4.396;2024-01-15T01:13:24;3.60;99.90
19829;DHT22;10075;50.924;4.396;2024-01-15T01:15:51;3.60;99.90
19829;DHT22;10075;50.924;4.396;2024-01-15T01:18:17;3.70;99.90
19829;DHT22;10075;50.924;4.396;2024-01-15T01:20:44;3.70;99.90
19829;DHT22;10075;50.924;4.396;2024-01-15T01:23:12;3.50;99.90
19829;DHT22;10075;50.924;4.396;2024-01-15T01:25:39;3.50;99.90
19829;DHT22;10075;50.924;4.396;2024-01-15T01:28:07;3.50;99.90
19829;DHT22;10075;50.924;4.396;2024-01-15T01:30:34;3.60;99.90
19829;DHT22;10075;50.924;4.396;2024-01-15T01:33:01;3.60;99.90
19829;DHT22;10075;50.924;4.396;2024-01-15T01:35:28;3.70;99.90
19829;DHT22;10075;50.924;4.396;2024-01-15T01:37:55;3.70;99.90
19829;DHT22;10075;50.924;4.396;2024-01-15T01:40:22;3.80;99.90
19829;DHT22;10075;50.924;4.396;2024-01-15T01:42:49;3.90;99.90
19829;DHT22;10075;50.924;4.396;2024-01-15T01:45:18;3.90;99.90
19829;DHT22;10075;50.924;4.396;2024-01-15T01:47:44;4.00;99.90
19829;DHT22;10075;50.924;4.396;2024-01-15T01:50:12;4.00;99.90
19829;DHT22;10075;50.924;4.396;2024-01-15T01:52:40;4.00;99.90
19829;DHT22;10075;50.924;4.396;2024-01-15T01:55:09;4.00;99.90
19829;DHT22;10075;50.924;4.396;2024-01-15T01:57:38;3.80;99.90
19829;DHT22;10075;50.924;4.396;2024-01-15T02:00:06;3.70;99.90
19829;DHT22;10075;50.924;4.396;2024-01-15T02:02:35;3.60;99.90
19829;DHT22;10075;50.924;4.396;2024-01-15T02:05:04;3.70;99.90
19829;DHT22;10075;50.924;4.396;2024-01-15T02:07:34;3.80;99.90
19829;DHT22;10075;50.924;4.396;2024-01-15T02:10:01;3.90;99.90
19829;DHT22;10075;50.924;4.396;2024-01-15T02:12:28;3.60;99.90
19829;DHT22;10075;50.924;4.396;2024-01-15T02:14:55;3.60;99.90
19829;DHT22;10075;50.924;4.396;2024-01-15T02:17:22;3.70;99.90
19829;DHT22;10075;50.924;4.396;2024-01-15T02:19:50;3.80;99.90
19829;DHT22;10075;50.924;4.396;2024-01-15T02:22:17;3.70;99.90
19829;DHT22;10075;50.924;4.396;2024-01-15T02:24:46;3.80;99.90
19829;DHT22;10075;50.924;4.396;2024-01-15T02:27:13;3.80;99.90
19829;DHT22;10075;50.924;4.396;2024-01-15T02:29:40;3.90;99.90
19829;DHT22;10075;50.924;4.396;2024-01-15T02:32:09;3.90;99.90
19829;DHT22;10075;50.924;4.396;2024-01-15T02:34:36;3.90;99.90
19829;DHT22;10075;50.924;4.396;2024-01-15T02:37:03;3.90;99.90
19829;DHT22;10075;50.924;4.396;2024-01-15T02:39:30;4.00;99.90
19829;DHT22;10075;50.924;4.396;2024-01-15T02:41:58;4.00;99.90
19829;DHT22;10075;50.924;4.396;2024-01-15T02:44:25;3.90;99.90
19829;DHT22;10075;50.924;4.396;2024-01-15T02:46:52;3.90;99.90
19829;DHT22;10075;50.924;4.396;2024-01-15T02:49:19;3.90;99.90
19829;DHT22;10075;50.924;4.396;2024-01-15T02:51:46;3.90;99.90
19829;DHT22;10075;50.924;4.396;2024-01-15T02:54:13;3.90;99.90
19829;DHT22;10075;50.924;4.396;2024-01-15T02:56:40;4.00;99.90
19829;DHT22;10075;50.924;4.396;2024-01-15T02:59:08;3.90;99.90
19829;DHT22;10075;50.924;4.396;2024-01-15T03:01:35;4.00;99.90
19829;DHT22;10075;50.924;4.396;2024-01-15T03:04:03;4.00;99.90
19829;DHT22;10075;50.924;4.396;2024-01-15T03:06:30;4.20;99.90
19829;DHT22;10075;50.924;4.396;2024-01-15T03:08:56;4.40;99.90
19829;DHT22;10075;50.924;4.396;2024-01-15T03:11:24;4.40;99.90
19829;DHT22;10075;50.924;4.396;2024-01-15T03:13:51;4.30;99.90
19829;DHT22;10075;50.924;4.396;2024-01-15T03:16:19;4.20;99.90
19829;DHT22;10075;50.924;4.396;2024-01-15T03:18:46;4.10;99.90
19829;DHT22;10075;50.924;4.396;2024-01-15T03:21:13;4.10;99.90
19829;DHT22;10075;50.924;4.396;2024-01-15T03:23:40;4.00;99.90
19829;DHT22;10075;50.924;4.396;2024-01-15T03:26:07;4.10;99.90
19829;DHT22;10075;50.924;4.396;2024-01-15T03:28:34;4.30;99.90
19829;DHT22;10075;50.924;4.396;2024-01-15T03:31:01;4.30;99.90
19829;DHT22;10075;50.924;4.396;2024-01-15T03:33:29;4.40;99.90
19829;DHT22;10075;50.924;4.396;2024-01-15T03:35:56;4.30;99.90
19829;DHT22;10075;50.924;4.396;2024-01-15T03:38:23;4.30;99.90
19829;DHT22;10075;50.924;4.396;2024-01-15T03:40:50;4.20;99.90
19829;DHT22;10075;50.924;4.396;2024-01-15T03:43:18;4.30;99.90
19829;DHT22;10075;50.924;4.396;2024-01-15T03:45:44;4.40;99.90
19829;DHT22;10075;50.924;4.396;2024-01-15T03:48:12;4.30;99.90
19829;DHT22;10075;50.924;4.396;2024-01-15T03:50:40;4.30;99.90
19829;DHT22;10075;50.924;4.396;2024-01-15T03:53:07;4.20;99.90
19829;DHT22;10075;50.924;4.396;2024-01-15T03:55:34;3.90;99.90
19829;DHT22;10075;50.924;4.396;2024-01-15T03:58:01;3.90;99.90
19829;DHT22;10075;50.924;4.396;2024-01-15T04:00:28;3.90;99.90
19829;DHT22;10075;50.924;4.396;2024-01-15T04:02:55;4.00;99.90
19829;DHT22;10075;50.924;4.396;2024-01-15T04:05:22;3.80;99.90
19829;DHT22;10075;50.924;4.396;2024-01-15T04:07:50;3.70;99.90
19829;DHT22;10075;50.924;4.396;2024-01-15T04:10:17;3.80;99.90
19829;DHT22;10075;50.924;4.396;2024-01-15T04:12:44;3.90;99.90
19829;DHT22;10075;50.924;4.396;2024-01-15T04:15:11;4.00;99.90
19829;DHT22;10075;50.924;4.396;2024-01-15T04:17:39;4.00;99.90
19829;DHT22;10075;50.924;4.396;2024-01-15T04:20:06;4.00;99.90
19829;DHT22;10075;50.924;4.396;2024-01-15T04:22:34;4.00;99.90
19829;DHT22;10075;50.924;4.396;2024-01-15T04:25:04;4.00;99.90
19829;DHT22;10075;50.924;4.396;2024-01-15T04:27:31;3.90;99.90
19829;DHT22;10075;50.924;4.396;2024-01-15T04:29:58;4.00;99.90
19829;DHT22;10075;50.924;4.396;2024-01-15T04:32:25;4.00;99.90
19829;DHT22;10075;50.924;4.396;2024-01-15T04:34:52;3.90;99.90
19829;DHT22;10075;50.924;4.396;2024-01-15T04:37:18;3.70;99.90
19829;DHT22;10075;50.924;4.396;2024-01-15T04:39:46;3.70;99.90
19829;DHT22;10075;50.924;4.396;2024-01-15T04:42:14;3.70;99.90
19829;DHT22;10075;50.924;4.396;2024-01-15T04:44:41;3.70;99.90
19829;DHT22;10075;50.924;4.396;2024-01-15T04:47:08;3.70;99.90
19829;DHT22;10075;50.924;4.396;2024-01-15T04:49:35;3.70;99.90
19829;DHT22;10075;50.924;4.396;2024-01-15T04:52:02;3.70;99.90
19829;DHT22;10075;50.924;4.396;2024-01-15T04:54:29;3.80;99.90
19829;DHT22;10075;50.924;4.396;2024-01-15T04:56:56;3.90;99.90
19829;DHT22;10075;50.924;4.396;2024-01-15T04:59:24;3.90;99.90
19829;DHT22;10075;50.924;4.396;2024-01-15T05:01:51;3.80;99.90
19829;DHT22;10075;50.924;4.396;2024-01-15T05:04:18;3.90;99.90
19829;DHT22;10075;50.924;4.396;2024-01-15T05:06:45;3.90;99.90
19829;DHT22;10075;50.924;4.396;2024-01-15T05:09:12;3.80;99.90
19829;DHT22;10075;50.924;4.396;2024-01-15T05:11:39;3.70;99.90
19829;DHT22;10075;50.924;4.396;2024-01-15T05:14:06;3.60;99.90
19829;DHT22;10075;50.924;4.396;2024-01-15T05:16:34;3.50;99.90
19829;DHT22;10075;50.924;4.396;2024-01-15T05:19:01;3.50;99.90
19829;DHT22;10075;50.924;4.396;2024-01-15T05:21:28;3.30;99.90
19829;DHT22;10075;50.924;4.396;2024-01-15T05:23:55;3.00;99.90
19829;DHT22;10075;50.924;4.396;2024-01-15T05:26:22;3.10;99.90
19829;DHT22;10075;50.924;4.396;2024-01-15T05:28:49;3.10;99.90
19829;DHT22;10075;50.924;4.396;2024-01-15T05:31:16;3.10;99.90
19829;DHT22;10075;50.924;4.396;2024-01-15T05:33:44;3.20;99.90
19829;DHT22;10075;50.924;4.396;2024-01-15T05:36:11;3.10;99.90
19829;DHT22;10075;50.924;4.396;2024-01-15T05:38:38;3.10;99.90
19829;DHT22;10075;50.924;4.396;2024-01-15T05:41:05;3.10;99.90
19829;DHT22;10075;50.924;4.396;2024-01-15T05:43:32;3.10;99.90
19829;DHT22;10075;50.924;4.396;2024-01-15T05:45:59;3.10;99.90
19829;DHT22;10075;50.924;4.396;2024-01-15T05:48:26;3.20;99.90
19829;DHT22;10075;50.924;4.396;2024-01-15T05:50:55;2.80;99.90
19829;DHT22;10075;50.924;4.396;2024-01-15T05:53:22;2.80;99.90
19829;DHT22;10075;50.924;4.396;2024-01-15T05:55:48;2.90;99.90
19829;DHT22;10075;50.924;4.396;2024-01-15T05:58:15;2.90;99.90
19829;DHT22;10075;50.924;4.396;2024-01-15T06:00:42;2.90;99.90
19829;DHT22;10075;50.924;4.396;2024-01-15T06:03:09;2.90;99.90
19829;DHT22;10075;50.924;4.396;2024-01-15T06:05:36;2.90;99.90
19829;DHT22;10075;50.924;4.396;2024-01-15T06:08:05;3.00;99.90
19829;DHT22;10075;50.924;4.396;2024-01-15T06:10:32;3.00;99.90
19829;DHT22;10075;50.924;4.396;2024-01-15T06:12:59;3.00;99.90
19829;DHT22;10075;50.924;4.396;2024-01-15T06:15:26;2.90;99.90
19829;DHT22;10075;50.924;4.396;2024-01-15T06:17:53;2.90;99.90
19829;DHT22;10075;50.924;4.396;2024-01-15T06:20:20;2.90;99.90
19829;DHT22;10075;50.924;4.396;2024-01-15T06:22:47;2.90;99.90
19829;DHT22;10075;50.924;4.396;2024-01-15T06:25:15;2.90;99.90
19829;DHT22;10075;50.924;4.396;2024-01-15T06:27:42;2.80;99.90
19829;DHT22;10075;50.924;4.396;2024-01-15T06:30:10;2.70;99.90
19829;DHT22;10075;50.924;4.396;2024-01-15T06:32:37;2.70;99.90
19829;DHT22;10075;50.924;4.396;2024-01-15T06:35:05;2.70;99.90
19829;DHT22;10075;50.924;4.396;2024-01-15T06:37:32;2.60;99.90
19829;DHT22;10075;50.924;4.396;2024-01-15T06:39:59;2.50;99.90
19829;DHT22;10075;50.924;4.396;2024-01-15T06:42:27;2.50;99.90
19829;DHT22;10075;50.924;4.396;2024-01-15T06:44:54;2.60;99.90
19829;DHT22;10075;50.924;4.396;2024-01-15T06:47:21;2.60;99.90
19829;DHT22;10075;50.924;4.396;2024-01-15T06:49:48;2.80;99.90
19829;DHT22;10075;50.924;4.396;2024-01-15T06:52:16;2.80;99.90
19829;DHT22;10075;50.924;4.396;2024-01-15T06:54:43;2.70;99.90
19829;DHT22;10075;50.924;4.396;2024-01-15T06:57:10;2.70;99.90
19829;DHT22;10075;50.924;4.396;2024-01-15T06:59:39;2.70;99.90
19829;DHT22;10075;50.924;4.396;2024-01-15T07:02:06;2.70;99.90
19829;DHT22;10075;50.924;4.396;2024-01-15T07:04:33;2.60;99.90
19829;DHT22;10075;50.924;4.396;2024-01-15T07:07:00;2.60;99.90
19829;DHT22;10075;50.924;4.396;2024-01-15T07:09:27;2.60;99.90
19829;DHT22;10075;50.924;4.396;2024-01-15T07:11:54;2.50;99.90
19829;DHT22;10075;50.924;4.396;2024-01-15T07:14:22;2.50;99.90
19829;DHT22;10075;50.924;4.396;2024-01-15T07:16:51;2.50;99.90
19829;DHT22;10075;50.924;4.396;2024-01-15T07:19:18;2.60;99.90
19829;DHT22;10075;50.924;4.396;2024-01-15T07:21:44;2.70;99.90
19829;DHT22;10075;50.924;4.396;2024-01-15T07:24:12;2.70;99.90
19829;DHT22;10075;50.924;4.396;2024-01-15T07:26:39;2.70;99.90
19829;DHT22;10075;50.924;4.396;2024-01-15T07:29:06;2.70;99.90
19829;DHT22;10075;50.924;4.396;2024-01-15T07:31:34;2.70;99.90
19829;DHT22;10075;50.924;4.396;2024-01-15T07:34:02;2.70;99.90
19829;DHT22;10075;50.924;4.396;2024-01-15T07:36:29;2.70;99.90
19829;DHT22;10075;50.924;4.396;2024-01-15T07:38:57;2.80;99.90
19829;DHT22;10075;50.924;4.396;2024-01-15T07:41:24;2.80;99.90
19829;DHT22;10075;50.924;4.396;2024-01-15T07:43:51;2.80;99.90
19829;DHT22;10075;50.924;4.396;2024-01-15T07:46:18;2.80;99.90
19829;DHT22;10075;50.924;4.396;2024-01-15T07:48:45;2.70;99.90
19829;DHT22;10075;50.924;4.396;2024-01-15T07:51:13;2.70;99.90
19829;DHT22;10075;50.924;4.396;2024-01-15T07:53:40;2.80;99.90
19829;DHT22;10075;50.924;4.396;2024-01-15T07:56:07;2.90;99.90
19829;DHT22;10075;50.924;4.396;2024-01-15T07:58:34;3.00;99.90
19829;DHT22;10075;50.924;4.396;2024-01-15T08:01:01;3.00;99.90
19829;DHT22;10075;50.924;4.396;2024-01-15T08:03:28;3.00;99.90
19829;DHT22;10075;50.924;4.396;2024-01-15T08:05:55;3.00;99.90
19829;DHT22;10075;50.924;4.396;2024-01-15T08:08:24;2.90;99.90
19829;DHT22;10075;50.924;4.396;2024-01-15T08:10:52;2.80;99.90
19829;DHT22;10075;50.924;4.396;2024-01-15T08:13:20;2.80;99.90
19829;DHT22;10075;50.924;4.396;2024-01-15T08:15:47;2.90;99.90
19829;DHT22;10075;50.924;4.396;2024-01-15T08:18:14;2.80;99.90
19829;DHT22;10075;50.924;4.396;2024-01-15T08:20:41;2.70;99.90
19829;DHT22;10075;50.924;4.396;2024-01-15T08:23:08;2.70;99.90
19829;DHT22;10075;50.924;4.396;2024-01-15T08:25:36;2.90;99.90
19829;DHT22;10075;50.924;4.396;2024-01-15T08:28:04;2.90;99.90
19829;DHT22;10075;50.924;4.396;2024-01-15T08:30:30;2.80;99.90
19829;DHT22;10075;50.924;4.396;2024-01-15T08:32:57;2.90;99.90
19829;DHT22;10075;50.924;4.396;2024-01-15T08:35:24;3.10;99.90
19829;DHT22;10075;50.924;4.396;2024-01-15T08:37:52;3.10;99.90
19829;DHT22;10075;50.924;4.396;2024-01-15T08:40:19;3.20;99.90
19829;DHT22;10075;50.924;4.396;2024-01-15T08:42:47;3.30;99.90
19829;DHT22;10075;50.924;4.396;2024-01-15T08:45:14;3.30;99.90
19829;DHT22;10075;50.924;4.396;2024-01-15T08:47:41;3.50;99.90
19829;DHT22;10075;50.924;4.396;2024-01-15T08:50:08;3.30;99.90
19829;DHT22;10075;50.924;4.396;2024-01-15T08:52:36;3.40;99.90
19829;DHT22;10075;50.924;4.396;2024-01-15T08:55:03;3.50;99.90
19829;DHT22;10075;50.924;4.396;2024-01-15T08:57:32;3.40;99.90
19829;DHT22;10075;50.924;4.396;2024-01-15T09:00:01;3.30;99.90
19829;DHT22;10075;50.924;4.396;2024-01-15T09:02:29;3.40;99.90
19829;DHT22;10075;50.924;4.396;2024-01-15T09:04:56;3.30;99.90
19829;DHT22;10075;50.924;4.396;2024-01-15T09:07:23;3.30;99.90
19829;DHT22;10075;50.924;4.396;2024-01-15T09:09:51;3.20;99.90
19829;DHT22;10075;50.924;4.396;2024-01-15T09:12:17;3.10;99.90
19829;DHT22;10075;50.924;4.396;2024-01-15T09:14:46;3.00;99.90
19829;DHT22;10075;50.924;4.396;2024-01-15T09:17:14;2.90;99.90
19829;DHT22;10075;50.924;4.396;2024-01-15T09:19:41;3.10;99.90
19829;DHT22;10075;50.924;4.396;2024-01-15T09:22:08;3.10;99.90
19829;DHT22;10075;50.924;4.396;2024-01-15T09:24:35;3.20;99.90
19829;DHT22;10075;50.924;4.396;2024-01-15T09:27:03;3.40;99.90
19829;DHT22;10075;50.924;4.396;2024-01-15T09:29:30;3.50;99.90
19829;DHT22;10075;50.924;4.396;2024-01-15T09:31:57;3.40;99.90
19829;DHT22;10075;50.924;4.396;2024-01-15T09:34:25;3.40;99.90
19829;DHT22;10075;50.924;4.396;2024-01-15T09:36:52;3.40;99.90
19829;DHT22;10075;50.924;4.396;2024-01-15T09:39:19;3.50;99.90
19829;DHT22;10075;50.924;4.396;2024-01-15T09:41:47;3.60;99.90
19829;DHT22;10075;50.924;4.396;2024-01-15T09:44:16;3.70;99.90
19829;DHT22;10075;50.924;4.396;2024-01-15T09:46:43;3.80;99.90
19829;DHT22;10075;50.924;4.396;2024-01-15T09:49:10;4.00;99.90
19829;DHT22;10075;50.924;4.396;2024-01-15T09:51:39;4.10;99.90
19829;DHT22;10075;50.924;4.396;2024-01-15T09:54:07;4.40;99.90
19829;DHT22;10075;50.924;4.396;2024-01-15T09:56:34;4.50;99.90
19829;DHT22;10075;50.924;4.396;2024-01-15T09:59:01;4.60;99.90
19829;DHT22;10075;50.924;4.396;2024-01-15T10:01:31;4.70;99.90
19829;DHT22;10075;50.924;4.396;2024-01-15T10:03:58;4.70;99.90
19829;DHT22;10075;50.924;4.396;2024-01-15T10:06:27;4.90;99.90
19829;DHT22;10075;50.924;4.396;2024-01-15T10:08:56;5.00;99.90
19829;DHT22;10075;50.924;4.396;2024-01-15T10:11:25;5.10;99.90
19829;DHT22;10075;50.924;4.396;2024-01-15T10:13:52;5.00;99.90
19829;DHT22;10075;50.924;4.396;2024-01-15T10:16:20;4.90;99.90
19829;DHT22;10075;50.924;4.396;2024-01-15T10:18:47;4.80;99.90
19829;DHT22;10075;50.924;4.396;2024-01-15T10:21:14;4.80;99.90
19829;DHT22;10075;50.924;4.396;2024-01-15T10:23:41;4.60;99.90
19829;DHT22;10075;50.924;4.396;2024-01-15T10:26:10;4.60;99.90
19829;DHT22;10075;50.924;4.396;2024-01-15T10:28:37;4.40;99.90
19829;DHT22;10075;50.924;4.396;2024-01-15T10:31:05;4.40;99.90
19829;DHT22;10075;50.924;4.396;2024-01-15T10:33:32;4.50;99.90
19829;DHT22;10075;50.924;4.396;2024-01-15T10:36:00;4.70;99.90
19829;DHT22;10075;50.924;4.396;2024-01-15T10:38:27;4.70;99.90
19829;DHT22;10075;50.924;4.396;2024-01-15T10:40:55;4.90;99.90
19829;DHT22;10075;50.924;4.396;2024-01-15T10:43:24;5.10;99.90
19829;DHT22;10075;50.924;4.396;2024-01-15T10:45:51;5.00;99.90
19829;DHT22;10075;50.924;4.396;2024-01-15T10:48:19;4.80;99.90
19829;DHT22;10075;50.924;4.396;2024-01-15T10:50:46;4.90;99.90
19829;DHT22;10075;50.924;4.396;2024-01-15T10:53:16;4.90;99.90
19829;DHT22;10075;50.924;4.396;2024-01-15T10:55:43;4.90;99.90
19829;DHT22;10075;50.924;4.396;2024-01-15T10:58:15;5.00;99.90
19829;DHT22;10075;50.924;4.396;2024-01-15T11:00:44;5.30;99.90
19829;DHT22;10075;50.924;4.396;2024-01-15T11:03:11;5.60;99.90
19829;DHT22;10075;50.924;4.396;2024-01-15T11:05:39;5.70;99.90
19829;DHT22;10075;50.924;4.396;2024-01-15T11:08:08;5.70;99.90
19829;DHT22;10075;50.924;4.396;2024-01-15T11:10:43;5.80;99.90
19829;DHT22;10075;50.924;4.396;2024-01-15T11:13:14;5.90;99.90
19829;DHT22;10075;50.924;4.396;2024-01-15T11:16:00;5.70;99.90
19829;DHT22;10075;50.924;4.396;2024-01-15T11:18:29;5.30;99.90
19829;DHT22;10075;50.924;4.396;2024-01-15T11:21:23;5.40;99.90
19829;DHT22;10075;50.924;4.396;2024-01-15T11:23:53;5.20;99.90
19829;DHT22;10075;50.924;4.396;2024-01-15T11:26:33;5.20;99.90
19829;DHT22;10075;50.924;4.396;2024-01-15T11:29:01;5.10;99.90
19829;DHT22;10075;50.924;4.396;2024-01-15T11:31:57;5.10;99.90
19829;DHT22;10075;50.924;4.396;2024-01-15T11:34:49;5.20;99.90
19829;DHT22;10075;50.924;4.396;2024-01-15T11:37:17;5.20;99.90
19829;DHT22;10075;50.924;4.396;2024-01-15T11:39:44;5.20;99.90
19829;DHT22;10075;50.924;4.396;2024-01-15T11:42:12;5.30;99.90
19829;DHT22;10075;50.924;4.396;2024-01-15T11:44:40;5.40;99.90
19829;DHT22;10075;50.924;4.396;2024-01-15T11:47:09;5.60;99.90
19829;DHT22;10075;50.924;4.396;2024-01-15T11:49:58;5.80;99.90
19829;DHT22;10075;50.924;4.396;2024-01-15T11:52:26;6.10;99.90
19829;DHT22;10075;50.924;4.396;2024-01-15T11:55:02;6.00;99.90
19829;DHT22;10075;50.924;4.396;2024-01-15T11:57:40;5.70;99.90
19829;DHT22;10075;50.924;4.396;2024-01-15T12:00:09;5.40;99.90
19829;DHT22;10075;50.924;4.396;2024-01-15T12:02:39;5.50;99.90
19829;DHT22;10075;50.924;4.396;2024-01-15T12:05:07;5.70;99.90
19829;DHT22;10075;50.924;4.396;2024-01-15T12:07:34;5.90;99.90
19829;DHT22;10075;50.924;4.396;2024-01-15T12:10:01;5.80;99.90
19829;DHT22;10075;50.924;4.396;2024-01-15T12:12:37;5.70;99.90
19829;DHT22;10075;50.924;4.396;2024-01-15T12:15:05;5.80;99.90
19829;DHT22;10075;50.924;4.396;2024-01-15T12:17:32;5.90;99.90
19829;DHT22;10075;50.924;4.396;2024-01-15T12:20:00;5.60;99.90
19829;DHT22;10075;50.924;4.396;2024-01-15T12:22:27;5.40;99.90
19829;DHT22;10075;50.924;4.396;2024-01-15T12:24:54;5.50;99.90
19829;DHT22;10075;50.924;4.396;2024-01-15T12:27:21;5.80;99.90
19829;DHT22;10075;50.924;4.396;2024-01-15T12:29:48;5.90;99.90
19829;DHT22;10075;50.924;4.396;2024-01-15T12:32:15;5.90;99.90
19829;DHT22;10075;50.924;4.396;2024-01-15T12:34:43;6.00;99.90
19829;DHT22;10075;50.924;4.396;2024-01-15T12:37:11;6.00;99.90
19829;DHT22;10075;50.924;4.396;2024-01-15T12:39:38;5.70;99.90
19829;DHT22;10075;50.924;4.396;2024-01-15T12:42:05;5.00;99.90
19829;DHT22;10075;50.924;4.396;2024-01-15T12:44:32;4.70;99.90
19829;DHT22;10075;50.924;4.396;2024-01-15T12:47:01;4.70;99.90
19829;DHT22;10075;50.924;4.396;2024-01-15T12:49:28;4.60;99.90
19829;DHT22;10075;50.924;4.396;2024-01-15T12:51:57;4.70;99.90
19829;DHT22;10075;50.924;4.396;2024-01-15T12:54:26;5.00;99.90
19829;DHT22;10075;50.924;4.396;2024-01-15T12:56:53;5.10;99.90
19829;DHT22;10075;50.924;4.396;2024-01-15T12:59:20;5.40;99.90
19829;DHT22;10075;50.924;4.396;2024-01-15T13:01:46;5.60;99.90
19829;DHT22;10075;50.924;4.396;2024-01-15T13:04:21;5.90;99.90
19829;DHT22;10075;50.924;4.396;2024-01-15T13:06:49;6.00;99.90
19829;DHT22;10075;50.924;4.396;2024-01-15T13:09:16;5.90;99.90
19829;DHT22;10075;50.924;4.396;2024-01-15T13:11:45;6.00;99.90
19829;DHT22;10075;50.924;4.396;2024-01-15T13:14:12;6.00;99.90
19829;DHT22;10075;50.924;4.396;2024-01-15T13:16:40;6.00;99.90
19829;DHT22;10075;50.924;4.396;2024-01-15T13:19:07;5.80;99.90
19829;DHT22;10075;50.924;4.396;2024-01-15T13:21:36;5.40;99.90
19829;DHT22;10075;50.924;4.396;2024-01-15T13:24:03;5.40;99.90
19829;DHT22;10075;50.924;4.396;2024-01-15T13:26:31;5.60;99.90
19829;DHT22;10075;50.924;4.396;2024-01-15T13:29:00;5.90;99.90
19829;DHT22;10075;50.924;4.396;2024-01-15T13:31:27;6.00;99.90
19829;DHT22;10075;50.924;4.396;2024-01-15T13:33:54;6.10;99.90
19829;DHT22;10075;50.924;4.396;2024-01-15T13:36:22;6.10;99.90
19829;DHT22;10075;50.924;4.396;2024-01-15T13:38:49;6.10;99.90
19829;DHT22;10075;50.924;4.396;2024-01-15T13:41:16;6.00;99.90
19829;DHT22;10075;50.924;4.396;2024-01-15T13:43:48;5.90;99.90
19829;DHT22;10075;50.924;4.396;2024-01-15T13:46:17;5.50;99.90
19829;DHT22;10075;50.924;4.396;2024-01-15T13:48:44;4.90;99.90
19829;DHT22;10075;50.924;4.396;2024-01-15T13:51:11;4.60;99.90
19829;DHT22;10075;50.924;4.396;2024-01-15T13:53:38;3.90;99.90
19829;DHT22;10075;50.924;4.396;2024-01-15T13:56:06;3.40;99.90
19829;DHT22;10075;50.924;4.396;2024-01-15T13:58:33;3.20;99.90
19829;DHT22;10075;50.924;4.396;2024-01-15T14:01:00;2.90;99.90
19829;DHT22;10075;50.924;4.396;2024-01-15T14:03:30;3.10;99.90
19829;DHT22;10075;50.924;4.396;2024-01-15T14:05:57;3.20;99.90
19829;DHT22;10075;50.924;4.396;2024-01-15T14:08:24;3.30;99.90
19829;DHT22;10075;50.924;4.396;2024-01-15T14:10:51;3.50;99.90
19829;DHT22;10075;50.924;4.396;2024-01-15T14:13:19;3.50;99.90
19829;DHT22;10075;50.924;4.396;2024-01-15T14:15:46;3.60;99.90
19829;DHT22;10075;50.924;4.396;2024-01-15T14:18:14;3.80;99.90
19829;DHT22;10075;50.924;4.396;2024-01-15T14:20:43;3.90;99.90
19829;DHT22;10075;50.924;4.396;2024-01-15T14:23:10;4.00;99.90
19829;DHT22;10075;50.924;4.396;2024-01-15T14:25:37;4.20;99.90
19829;DHT22;10075;50.924;4.396;2024-01-15T14:28:05;3.90;99.90
19829;DHT22;10075;50.924;4.396;2024-01-15T14:30:32;3.60;99.90
19829;DHT22;10075;50.924;4.396;2024-01-15T14:32:59;3.20;99.90
19829;DHT22;10075;50.924;4.396;2024-01-15T14:35:26;3.00;99.90
19829;DHT22;10075;50.924;4.396;2024-01-15T14:37:54;3.10;99.90
19829;DHT22;10075;50.924;4.396;2024-01-15T14:40:23;3.10;99.90
19829;DHT22;10075;50.924;4.396;2024-01-15T14:42:50;3.20;99.90
19829;DHT22;10075;50.924;4.396;2024-01-15T14:45:17;3.30;99.90
19829;DHT22;10075;50.924;4.396;2024-01-15T14:47:44;3.40;99.90
19829;DHT22;10075;50.924;4.396;2024-01-15T14:50:11;3.50;99.90
19829;DHT22;10075;50.924;4.396;2024-01-15T14:52:38;3.50;99.90
19829;DHT22;10075;50.924;4.396;2024-01-15T14:55:07;3.50;99.90
19829;DHT22;10075;50.924;4.396;2024-01-15T14:57:34;3.50;99.90
19829;DHT22;10075;50.924;4.396;2024-01-15T15:00:01;3.60;99.90
19829;DHT22;10075;50.924;4.396;2024-01-15T15:02:30;3.70;99.90
19829;DHT22;10075;50.924;4.396;2024-01-15T15:04:59;3.70;99.90
19829;DHT22;10075;50.924;4.396;2024-01-15T15:07:26;3.70;99.90
19829;DHT22;10075;50.924;4.396;2024-01-15T15:09:53;3.80;99.90
19829;DHT22;10075;50.924;4.396;2024-01-15T15:12:21;3.70;99.90
19829;DHT22;10075;50.924;4.396;2024-01-15T15:14:49;3.50;99.90
19829;DHT22;10075;50.924;4.396;2024-01-15T15:17:15;3.50;99.90
19829;DHT22;10075;50.924;4.396;2024-01-15T15:19:42;3.50;99.90
19829;DHT22;10075;50.924;4.396;2024-01-15T15:22:09;3.50;99.90
19829;DHT22;10075;50.924;4.396;2024-01-15T15:24:37;3.60;99.90
19829;DHT22;10075;50.924;4.396;2024-01-15T15:27:04;3.60;99.90
19829;DHT22;10075;50.924;4.396;2024-01-15T15:29:33;3.60;99.90
19829;DHT22;10075;50.924;4.396;2024-01-15T15:32:01;3.60;99.90
19829;DHT22;10075;50.924;4.396;2024-01-15T15:34:28;3.60;99.90
19829;DHT22;10075;50.924;4.396;2024-01-15T15:36:55;3.60;99.90
19829;DHT22;10075;50.924;4.396;2024-01-15T15:39:22;3.70;99.90
19829;DHT22;10075;50.924;4.396;2024-01-15T15:41:50;3.60;99.90
19829;DHT22;10075;50.924;4.396;2024-01-15T15:44:17;3.30;99.90
19829;DHT22;10075;50.924;4.396;2024-01-15T15:46:45;3.30;99.90
19829;DHT22;10075;50.924;4.396;2024-01-15T15:49:12;3.40;99.90